sensor_id;sensor_type;location;lat;lon;timestamp;temperature;humidity
22629;DHT22;11481;53.694;9.910;2023-05-03T00:00:08;6.50;99.90
22629;DHT22;11481;53.694;9.910;2023-05-03T00:02:35;6.60;99.90
22629;DHT22;11481;53.694;9.910;2023-05-03T00:05:06;6.60;99.90
22629;DHT22;11481;53.694;9.910;2023-05-03T00:07:38;6.70;99.90
22629;DHT22;11481;53.694;9.910;2023-05-03T00:10:06;6.70;99.90
22629;DHT22;11481;53.694;9.910;2023-05-03T00:12:34;6.80;99.90
22629;DHT22;11481;53.694;9.910;2023-05-03T00:15:00;6.80;99.90
22629;DHT22;11481;53.694;9.910;2023-05-03T00:17:27;6.80;99.90
22629;DHT22;11481;53.694;9.910;2023-05-03T00:19:54;6.80;99.90
22629;DHT22;11481;53.694;9.910;2023-05-03T00:22:21;6.80;99.90
22629;DHT22;11481;53.694;9.910;2023-05-03T00:24:48;6.70;99.90
22629;DHT22;11481;53.694;9.910;2023-05-03T00:27:17;6.80;99.90
22629;DHT22;11481;53.694;9.910;2023-05-03T00:29:44;6.70;99.90
22629;DHT22;11481;53.694;9.910;2023-05-03T00:32:11;6.70;99.90
22629;DHT22;11481;53.694;9.910;2023-05-03T00:34:38;6.70;99.90
22629;DHT22;11481;53.694;9.910;2023-05-03T00:37:04;6.70;99.90
22629;DHT22;11481;53.694;9.910;2023-05-03T00:39:31;6.60;99.90
22629;DHT22;11481;53.694;9.910;2023-05-03T00:41:59;6.50;99.90
22629;DHT22;11481;53.694;9.910;2023-05-03T00:44:27;6.50;99.90
22629;DHT22;11481;53.694;9.910;2023-05-03T00:46:54;6.60;99.90
22629;DHT22;11481;53.694;9.910;2023-05-03T00:49:23;6.50;99.90
22629;DHT22;11481;53.694;9.910;2023-05-03T00:51:53;6.40;99.90
22629;DHT22;11481;53.694;9.910;2023-05-03T00:54:21;6.40;99.90
22629;DHT22;11481;53.694;9.910;2023-05-03T00:56:48;6.40;99.90
22629;DHT22;11481;53.694;9.910;2023-05-03T00:59:18;6.30;99.90
22629;DHT22;11481;53.694;9.910;2023-05-03T01:01:50;6.30;99.90
22629;DHT22;11481;53.694;9.910;2023-05-03T01:04:18;6.40;99.90
22629;DHT22;11481;53.694;9.910;2023-05-03T01:07:14;6.40;99.90
22629;DHT22;11481;53.694;9.910;2023-05-03T01:09:52;6.40;99.90
22629;DHT22;11481;53.694;9.910;2023-05-03T01:12:47;6.30;99.90
22629;DHT22;11481;53.694;9.910;2023-05-03T01:15:52;6.30;99.90
22629;DHT22;11481;53.694;9.910;2023-05-03T01:18:23;6.30;99.90
22629;DHT22;11481;53.694;9.910;2023-05-03T01:20:52;6.30;99.90
22629;DHT22;11481;53.694;9.910;2023-05-03T01:23:39;6.30;99.90
22629;DHT22;11481;53.694;9.910;2023-05-03T01:26:23;6.30;99.90
22629;DHT22;11481;53.694;9.910;2023-05-03T01:28:50;6.30;99.90
22629;DHT22;11481;53.694;9.910;2023-05-03T01:36:42;6.30;99.90
22629;DHT22;11481;53.694;9.910;2023-05-03T01:39:17;6.30;99.90
22629;DHT22;11481;53.694;9.910;2023-05-03T01:41:45;6.40;99.90
22629;DHT22;11481;53.694;9.910;2023-05-03T01:44:15;6.40;99.90
22629;DHT22;11481;53.694;9.910;2023-05-03T01:46:43;6.50;99.90
22629;DHT22;11481;53.694;9.910;2023-05-03T01:49:11;6.40;99.90
22629;DHT22;11481;53.694;9.910;2023-05-03T01:51:38;6.50;99.90
22629;DHT22;11481;53.694;9.910;2023-05-03T01:54:06;6.50;99.90
22629;DHT22;11481;53.694;9.910;2023-05-03T01:56:34;6.50;99.90
22629;DHT22;11481;53.694;9.910;2023-05-03T01:59:04;6.50;99.90
22629;DHT22;11481;53.694;9.910;2023-05-03T02:01:31;6.50;99.90
22629;DHT22;11481;53.694;9.910;2023-05-03T02:03:58;6.50;99.90
22629;DHT22;11481;53.694;9.910;2023-05-03T02:06:24;6.50;99.90
22629;DHT22;11481;53.694;9.910;2023-05-03T02:08:52;6.50;99.90
22629;DHT22;11481;53.694;9.910;2023-05-03T02:11:19;6.50;99.90
22629;DHT22;11481;53.694;9.910;2023-05-03T02:13:48;6.50;99.90
22629;DHT22;11481;53.694;9.910;2023-05-03T02:16:17;6.50;99.90
22629;DHT22;11481;53.694;9.910;2023-05-03T02:18:44;6.50;99.90
22629;DHT22;11481;53.694;9.910;2023-05-03T02:21:11;6.40;99.90
22629;DHT22;11481;53.694;9.910;2023-05-03T02:23:39;6.40;99.90
22629;DHT22;11481;53.694;9.910;2023-05-03T02:26:06;6.40;99.90
22629;DHT22;11481;53.694;9.910;2023-05-03T02:28:33;6.40;99.90
22629;DHT22;11481;53.694;9.910;2023-05-03T02:31:00;6.40;99.90
22629;DHT22;11481;53.694;9.910;2023-05-03T02:33:27;6.40;99.90
22629;DHT22;11481;53.694;9.910;2023-05-03T02:35:54;6.40;99.90
22629;DHT22;11481;53.694;9.910;2023-05-03T02:38:21;6.40;99.90
22629;DHT22;11481;53.694;9.910;2023-05-03T02:40:47;6.40;99.90
22629;DHT22;11481;53.694;9.910;2023-05-03T02:43:14;6.30;99.90
22629;DHT22;11481;53.694;9.910;2023-05-03T02:45:42;6.30;99.90
22629;DHT22;11481;53.694;9.910;2023-05-03T02:48:09;6.20;99.90
22629;DHT22;11481;53.694;9.910;2023-05-03T02:50:36;6.30;99.90
22629;DHT22;11481;53.694;9.910;2023-05-03T02:53:03;6.40;99.90
22629;DHT22;11481;53.694;9.910;2023-05-03T02:55:29;6.40;99.90
22629;DHT22;11481;53.694;9.910;2023-05-03T02:57:57;6.50;99.90
22629;DHT22;11481;53.694;9.910;2023-05-03T03:00:23;6.50;99.90
22629;DHT22;11481;53.694;9.910;2023-05-03T03:02:50;6.50;99.90
22629;DHT22;11481;53.694;9.910;2023-05-03T03:05:17;6.50;99.90
22629;DHT22;11481;53.694;9.910;2023-05-03T03:07:44;6.50;99.90
22629;DHT22;11481;53.694;9.910;2023-05-03T03:10:10;6.50;99.90
22629;DHT22;11481;53.694;9.910;2023-05-03T03:12:38;6.40;99.90
22629;DHT22;11481;53.694;9.910;2023-05-03T03:15:05;6.50;99.90
22629;DHT22;11481;53.694;9.910;2023-05-03T03:17:32;6.50;99.90
22629;DHT22;11481;53.694;9.910;2023-05-03T03:19:59;6.50;99.90
22629;DHT22;11481;53.694;9.910;2023-05-03T03:22:28;6.60;99.90
22629;DHT22;11481;53.694;9.910;2023-05-03T03:24:54;6.60;99.90
22629;DHT22;11481;53.694;9.910;2023-05-03T03:27:21;6.50;99.90
22629;DHT22;11481;53.694;9.910;2023-05-03T03:29:49;6.50;99.90
22629;DHT22;11481;53.694;9.910;2023-05-03T03:32:16;6.50;99.90
22629;DHT22;11481;53.694;9.910;2023-05-03T03:34:42;6.50;99.90
22629;DHT22;11481;53.694;9.910;2023-05-03T03:37:09;6.50;99.90
22629;DHT22;11481;53.694;9.910;2023-05-03T03:39:36;6.50;99.90
22629;DHT22;11481;53.694;9.910;2023-05-03T03:42:06;6.50;99.90
22629;DHT22;11481;53.694;9.910;2023-05-03T03:44:32;6.50;99.90
22629;DHT22;11481;53.694;9.910;2023-05-03T03:46:59;6.50;99.90
22629;DHT22;11481;53.694;9.910;2023-05-03T03:49:26;6.50;99.90
22629;DHT22;11481;53.694;9.910;2023-05-03T03:51:53;6.60;99.90
22629;DHT22;11481;53.694;9.910;2023-05-03T03:54:19;6.60;99.90
22629;DHT22;11481;53.694;9.910;2023-05-03T03:56:46;6.60;99.90
22629;DHT22;11481;53.694;9.910;2023-05-03T03:59:13;6.60;99.90
22629;DHT22;11481;53.694;9.910;2023-05-03T04:01:39;6.60;99.90
22629;DHT22;11481;53.694;9.910;2023-05-03T04:04:06;6.60;99.90
22629;DHT22;11481;53.694;9.910;2023-05-03T04:06:33;6.60;99.90
22629;DHT22;11481;53.694;9.910;2023-05-03T04:09:00;6.60;99.90
22629;DHT22;11481;53.694;9.910;2023-05-03T04:11:27;6.70;99.90
22629;DHT22;11481;53.694;9.910;2023-05-03T04:13:54;6.70;99.90
22629;DHT22;11481;53.694;9.910;2023-05-03T04:16:21;6.70;99.90
22629;DHT22;11481;53.694;9.910;2023-05-03T04:18:47;6.70;99.90
22629;DHT22;11481;53.694;9.910;2023-05-03T04:21:14;6.70;99.90
22629;DHT22;11481;53.694;9.910;2023-05-03T04:23:41;6.70;99.90
22629;DHT22;11481;53.694;9.910;2023-05-03T04:26:08;6.80;99.90
22629;DHT22;11481;53.694;9.910;2023-05-03T04:28:53;6.80;99.90
22629;DHT22;11481;53.694;9.910;2023-05-03T04:31:19;6.80;99.90
22629;DHT22;11481;53.694;9.910;2023-05-03T04:33:47;6.80;99.90
22629;DHT22;11481;53.694;9.910;2023-05-03T04:36:13;6.80;99.90
22629;DHT22;11481;53.694;9.910;2023-05-03T04:38:44;6.90;99.90
22629;DHT22;11481;53.694;9.910;2023-05-03T04:41:11;6.90;99.90
22629;DHT22;11481;53.694;9.910;2023-05-03T04:43:41;6.80;99.90
22629;DHT22;11481;53.694;9.910;2023-05-03T04:46:08;6.90;99.90
22629;DHT22;11481;53.694;9.910;2023-05-03T04:48:35;6.90;99.90
22629;DHT22;11481;53.694;9.910;2023-05-03T04:51:03;6.90;99.90
22629;DHT22;11481;53.694;9.910;2023-05-03T04:53:31;6.90;99.90
22629;DHT22;11481;53.694;9.910;2023-05-03T04:55:58;6.90;99.90
22629;DHT22;11481;53.694;9.910;2023-05-03T04:58:26;7.00;99.90
22629;DHT22;11481;53.694;9.910;2023-05-03T05:00:53;7.00;99.90
22629;DHT22;11481;53.694;9.910;2023-05-03T05:03:20;7.00;99.90
22629;DHT22;11481;53.694;9.910;2023-05-03T05:05:47;7.10;99.90
22629;DHT22;11481;53.694;9.910;2023-05-03T05:08:13;7.20;99.90
22629;DHT22;11481;53.694;9.910;2023-05-03T05:10:40;7.20;99.90
22629;DHT22;11481;53.694;9.910;2023-05-03T05:13:07;7.30;99.90
22629;DHT22;11481;53.694;9.910;2023-05-03T05:15:34;7.30;99.90
22629;DHT22;11481;53.694;9.910;2023-05-03T05:18:03;7.40;99.90
22629;DHT22;11481;53.694;9.910;2023-05-03T05:20:29;7.40;99.90
22629;DHT22;11481;53.694;9.910;2023-05-03T05:22:56;7.50;99.90
22629;DHT22;11481;53.694;9.910;2023-05-03T05:25:24;7.60;99.90
22629;DHT22;11481;53.694;9.910;2023-05-03T05:27:51;7.70;99.90
22629;DHT22;11481;53.694;9.910;2023-05-03T05:30:18;7.70;99.90
22629;DHT22;11481;53.694;9.910;2023-05-03T05:32:45;7.60;99.90
22629;DHT22;11481;53.694;9.910;2023-05-03T05:35:11;7.60;99.90
22629;DHT22;11481;53.694;9.910;2023-05-03T05:37:38;7.70;99.90
22629;DHT22;11481;53.694;9.910;2023-05-03T05:40:05;7.60;99.90
22629;DHT22;11481;53.694;9.910;2023-05-03T05:42:33;7.70;99.90
22629;DHT22;11481;53.694;9.910;2023-05-03T05:44:59;7.70;99.90
22629;DHT22;11481;53.694;9.910;2023-05-03T05:47:27;7.70;99.90
22629;DHT22;11481;53.694;9.910;2023-05-03T05:49:55;7.70;99.90
22629;DHT22;11481;53.694;9.910;2023-05-03T05:52:21;7.80;99.90
22629;DHT22;11481;53.694;9.910;2023-05-03T05:54:48;7.80;99.90
22629;DHT22;11481;53.694;9.910;2023-05-03T05:57:14;7.80;99.90
22629;DHT22;11481;53.694;9.910;2023-05-03T05:59:41;8.00;99.90
22629;DHT22;11481;53.694;9.910;2023-05-03T06:02:13;8.00;99.90
22629;DHT22;11481;53.694;9.910;2023-05-03T06:04:44;8.10;99.90
22629;DHT22;11481;53.694;9.910;2023-05-03T06:07:13;8.20;99.90
22629;DHT22;11481;53.694;9.910;2023-05-03T06:09:41;8.20;99.90
22629;DHT22;11481;53.694;9.910;2023-05-03T06:12:09;8.20;99.90
22629;DHT22;11481;53.694;9.910;2023-05-03T06:14:38;8.30;99.90
22629;DHT22;11481;53.694;9.910;2023-05-03T06:17:14;8.40;99.90
22629;DHT22;11481;53.694;9.910;2023-05-03T06:19:44;8.40;99.90
22629;DHT22;11481;53.694;9.910;2023-05-03T06:22:10;8.50;99.90
22629;DHT22;11481;53.694;9.910;2023-05-03T06:24:39;8.70;99.90
22629;DHT22;11481;53.694;9.910;2023-05-03T06:27:08;8.60;99.90
22629;DHT22;11481;53.694;9.910;2023-05-03T06:29:35;8.70;99.90
22629;DHT22;11481;53.694;9.910;2023-05-03T06:32:04;8.70;99.90
22629;DHT22;11481;53.694;9.910;2023-05-03T06:34:31;8.70;99.90
22629;DHT22;11481;53.694;9.910;2023-05-03T06:36:57;8.90;99.90
22629;DHT22;11481;53.694;9.910;2023-05-03T06:39:25;9.00;99.90
22629;DHT22;11481;53.694;9.910;2023-05-03T06:41:55;9.00;99.90
22629;DHT22;11481;53.694;9.910;2023-05-03T06:44:22;8.80;99.90
22629;DHT22;11481;53.694;9.910;2023-05-03T06:46:49;8.70;99.90
22629;DHT22;11481;53.694;9.910;2023-05-03T06:49:16;8.60;99.90
22629;DHT22;11481;53.694;9.910;2023-05-03T06:51:43;8.80;99.90
22629;DHT22;11481;53.694;9.910;2023-05-03T06:54:09;8.90;99.90
22629;DHT22;11481;53.694;9.910;2023-05-03T06:56:36;8.90;99.90
22629;DHT22;11481;53.694;9.910;2023-05-03T06:59:06;9.10;99.90
22629;DHT22;11481;53.694;9.910;2023-05-03T07:01:33;9.30;99.90
22629;DHT22;11481;53.694;9.910;2023-05-03T07:04:00;9.20;99.90
22629;DHT22;11481;53.694;9.910;2023-05-03T07:06:27;9.40;99.90
22629;DHT22;11481;53.694;9.910;2023-05-03T07:09:06;9.40;99.90
22629;DHT22;11481;53.694;9.910;2023-05-03T07:11:33;9.60;99.90
22629;DHT22;11481;53.694;9.910;2023-05-03T07:14:02;9.40;99.90
22629;DHT22;11481;53.694;9.910;2023-05-03T07:16:28;9.60;99.90
22629;DHT22;11481;53.694;9.910;2023-05-03T07:18:55;9.80;99.90
22629;DHT22;11481;53.694;9.910;2023-05-03T07:21:22;10.10;99.90
22629;DHT22;11481;53.694;9.910;2023-05-03T07:23:48;10.20;99.90
22629;DHT22;11481;53.694;9.910;2023-05-03T07:26:15;10.30;99.90
22629;DHT22;11481;53.694;9.910;2023-05-03T07:28:42;10.30;99.90
22629;DHT22;11481;53.694;9.910;2023-05-03T07:31:08;10.30;99.90
22629;DHT22;11481;53.694;9.910;2023-05-03T07:33:35;10.50;99.90
22629;DHT22;11481;53.694;9.910;2023-05-03T07:36:05;10.20;99.90
22629;DHT22;11481;53.694;9.910;2023-05-03T07:38:34;10.10;99.90
22629;DHT22;11481;53.694;9.910;2023-05-03T07:41:01;10.20;99.90
22629;DHT22;11481;53.694;9.910;2023-05-03T07:43:30;10.10;99.90
22629;DHT22;11481;53.694;9.910;2023-05-03T07:45:59;9.90;99.90
22629;DHT22;11481;53.694;9.910;2023-05-03T07:48:25;9.90;99.90
22629;DHT22;11481;53.694;9.910;2023-05-03T07:50:52;9.90;99.90
22629;DHT22;11481;53.694;9.910;2023-05-03T07:53:20;10.10;99.90
22629;DHT22;11481;53.694;9.910;2023-05-03T07:55:47;10.50;99.90
22629;DHT22;11481;53.694;9.910;2023-05-03T07:58:15;10.70;99.90
22629;DHT22;11481;53.694;9.910;2023-05-03T08:00:57;11.00;99.90
22629;DHT22;11481;53.694;9.910;2023-05-03T08:03:23;11.10;99.90
22629;DHT22;11481;53.694;9.910;2023-05-03T08:05:52;11.30;99.90
22629;DHT22;11481;53.694;9.910;2023-05-03T08:08:18;11.40;99.90
22629;DHT22;11481;53.694;9.910;2023-05-03T08:10:45;11.30;99.90
22629;DHT22;11481;53.694;9.910;2023-05-03T08:13:13;11.20;99.90
22629;DHT22;11481;53.694;9.910;2023-05-03T08:15:39;11.00;99.90
22629;DHT22;11481;53.694;9.910;2023-05-03T08:18:06;10.70;99.90
22629;DHT22;11481;53.694;9.910;2023-05-03T08:20:32;10.60;99.90
22629;DHT22;11481;53.694;9.910;2023-05-03T08:23:02;10.60;99.90
22629;DHT22;11481;53.694;9.910;2023-05-03T08:25:28;10.40;99.90
22629;DHT22;11481;53.694;9.910;2023-05-03T08:27:55;10.40;99.90
22629;DHT22;11481;53.694;9.910;2023-05-03T08:30:22;10.30;99.90
22629;DHT22;11481;53.694;9.910;2023-05-03T08:32:49;10.30;99.90
22629;DHT22;11481;53.694;9.910;2023-05-03T08:35:17;10.20;99.90
22629;DHT22;11481;53.694;9.910;2023-05-03T08:37:45;10.10;99.90
22629;DHT22;11481;53.694;9.910;2023-05-03T08:40:14;10.00;99.90
22629;DHT22;11481;53.694;9.910;2023-05-03T08:42:45;10.30;99.90
22629;DHT22;11481;53.694;9.910;2023-05-03T08:45:15;10.40;99.90
22629;DHT22;11481;53.694;9.910;2023-05-03T08:47:44;10.60;99.90
22629;DHT22;11481;53.694;9.910;2023-05-03T08:50:13;10.70;99.90
22629;DHT22;11481;53.694;9.910;2023-05-03T08:52:40;10.80;99.90
22629;DHT22;11481;53.694;9.910;2023-05-03T08:55:09;11.00;99.90
22629;DHT22;11481;53.694;9.910;2023-05-03T08:57:36;10.90;99.90
22629;DHT22;11481;53.694;9.910;2023-05-03T09:00:04;10.90;99.90
22629;DHT22;11481;53.694;9.910;2023-05-03T09:02:33;11.00;99.90
22629;DHT22;11481;53.694;9.910;2023-05-03T09:05:50;11.10;99.90
22629;DHT22;11481;53.694;9.910;2023-05-03T09:08:09;11.20;99.90
22629;DHT22;11481;53.694;9.910;2023-05-03T09:10:38;11.00;99.90
22629;DHT22;11481;53.694;9.910;2023-05-03T09:13:05;11.00;99.90
22629;DHT22;11481;53.694;9.910;2023-05-03T09:15:33;11.00;99.90
22629;DHT22;11481;53.694;9.910;2023-05-03T09:18:17;11.00;99.90
22629;DHT22;11481;53.694;9.910;2023-05-03T09:20:49;11.10;99.90
22629;DHT22;11481;53.694;9.910;2023-05-03T09:25:52;11.10;99.90
22629;DHT22;11481;53.694;9.910;2023-05-03T09:28:19;11.10;99.90
22629;DHT22;11481;53.694;9.910;2023-05-03T09:30:51;11.20;99.90
22629;DHT22;11481;53.694;9.910;2023-05-03T09:33:29;11.40;99.90
22629;DHT22;11481;53.694;9.910;2023-05-03T09:35:57;11.30;99.90
22629;DHT22;11481;53.694;9.910;2023-05-03T09:38:26;11.30;99.90
22629;DHT22;11481;53.694;9.910;2023-05-03T09:40:53;11.20;99.90
22629;DHT22;11481;53.694;9.910;2023-05-03T09:43:22;11.30;99.90
22629;DHT22;11481;53.694;9.910;2023-05-03T09:45:49;11.40;99.90
22629;DHT22;11481;53.694;9.910;2023-05-03T09:48:16;11.50;99.90
22629;DHT22;11481;53.694;9.910;2023-05-03T09:50:44;11.50;99.90
22629;DHT22;11481;53.694;9.910;2023-05-03T09:53:11;11.40;99.90
22629;DHT22;11481;53.694;9.910;2023-05-03T09:55:39;11.70;99.90
22629;DHT22;11481;53.694;9.910;2023-05-03T09:58:06;12.00;99.90
22629;DHT22;11481;53.694;9.910;2023-05-03T10:00:40;12.30;99.90
22629;DHT22;11481;53.694;9.910;2023-05-03T10:03:10;12.60;99.90
22629;DHT22;11481;53.694;9.910;2023-05-03T10:05:45;12.60;99.90
22629;DHT22;11481;53.694;9.910;2023-05-03T10:08:26;12.30;99.90
22629;DHT22;11481;53.694;9.910;2023-05-03T10:10:53;12.10;99.90
22629;DHT22;11481;53.694;9.910;2023-05-03T10:13:23;11.90;99.90
22629;DHT22;11481;53.694;9.910;2023-05-03T10:16:00;11.80;99.90
22629;DHT22;11481;53.694;9.910;2023-05-03T10:18:29;11.80;99.90
22629;DHT22;11481;53.694;9.910;2023-05-03T10:21:03;12.10;99.90
22629;DHT22;11481;53.694;9.910;2023-05-03T10:23:32;12.50;99.90
22629;DHT22;11481;53.694;9.910;2023-05-03T10:28:38;12.90;99.90
22629;DHT22;11481;53.694;9.910;2023-05-03T10:31:43;12.60;99.90
22629;DHT22;11481;53.694;9.910;2023-05-03T10:34:21;12.20;99.90
22629;DHT22;11481;53.694;9.910;2023-05-03T10:36:49;12.00;99.90
22629;DHT22;11481;53.694;9.910;2023-05-03T10:39:19;12.20;99.90
22629;DHT22;11481;53.694;9.910;2023-05-03T10:41:58;12.30;99.90
22629;DHT22;11481;53.694;9.910;2023-05-03T10:44:26;12.30;99.90
22629;DHT22;11481;53.694;9.910;2023-05-03T10:46:53;12.30;99.90
22629;DHT22;11481;53.694;9.910;2023-05-03T10:49:26;12.00;99.90
22629;DHT22;11481;53.694;9.910;2023-05-03T10:51:52;12.10;99.90
22629;DHT22;11481;53.694;9.910;2023-05-03T10:54:24;12.20;99.90
22629;DHT22;11481;53.694;9.910;2023-05-03T10:56:53;12.40;99.90
22629;DHT22;11481;53.694;9.910;2023-05-03T10:59:22;12.30;99.90
22629;DHT22;11481;53.694;9.910;2023-05-03T11:01:50;12.50;99.90
22629;DHT22;11481;53.694;9.910;2023-05-03T11:04:37;13.00;99.90
22629;DHT22;11481;53.694;9.910;2023-05-03T11:07:06;13.60;99.90
22629;DHT22;11481;53.694;9.910;2023-05-03T11:09:33;13.60;99.90
22629;DHT22;11481;53.694;9.910;2023-05-03T11:12:04;13.30;99.90
22629;DHT22;11481;53.694;9.910;2023-05-03T11:14:31;12.90;99.90
22629;DHT22;11481;53.694;9.910;2023-05-03T11:16:57;12.70;99.90
22629;DHT22;11481;53.694;9.910;2023-05-03T11:19:24;12.70;99.90
22629;DHT22;11481;53.694;9.910;2023-05-03T11:21:52;12.70;99.90
22629;DHT22;11481;53.694;9.910;2023-05-03T11:24:19;12.90;99.90
22629;DHT22;11481;53.694;9.910;2023-05-03T11:26:45;12.90;99.90
22629;DHT22;11481;53.694;9.910;2023-05-03T11:29:13;12.80;99.90
22629;DHT22;11481;53.694;9.910;2023-05-03T11:31:41;12.80;99.90
22629;DHT22;11481;53.694;9.910;2023-05-03T11:34:10;13.00;99.90
22629;DHT22;11481;53.694;9.910;2023-05-03T11:36:37;13.20;99.90
22629;DHT22;11481;53.694;9.910;2023-05-03T11:39:03;13.60;99.90
22629;DHT22;11481;53.694;9.910;2023-05-03T11:41:31;13.70;99.90
22629;DHT22;11481;53.694;9.910;2023-05-03T11:43:58;13.60;99.90
22629;DHT22;11481;53.694;9.910;2023-05-03T11:46:41;13.80;99.90
22629;DHT22;11481;53.694;9.910;2023-05-03T11:49:08;13.80;99.90
22629;DHT22;11481;53.694;9.910;2023-05-03T11:51:35;13.70;99.90
22629;DHT22;11481;53.694;9.910;2023-05-03T11:54:02;13.80;99.90
22629;DHT22;11481;53.694;9.910;2023-05-03T11:56:53;13.80;99.90
22629;DHT22;11481;53.694;9.910;2023-05-03T11:59:20;14.10;99.90
22629;DHT22;11481;53.694;9.910;2023-05-03T12:02:01;13.90;99.90
22629;DHT22;11481;53.694;9.910;2023-05-03T12:04:29;13.10;99.90
22629;DHT22;11481;53.694;9.910;2023-05-03T12:06:57;12.90;99.90
22629;DHT22;11481;53.694;9.910;2023-05-03T12:09:28;12.90;99.90
22629;DHT22;11481;53.694;9.910;2023-05-03T12:11:55;12.60;99.90
22629;DHT22;11481;53.694;9.910;2023-05-03T12:14:24;12.80;99.90
22629;DHT22;11481;53.694;9.910;2023-05-03T12:16:51;13.10;99.90
22629;DHT22;11481;53.694;9.910;2023-05-03T12:19:27;13.40;99.90
22629;DHT22;11481;53.694;9.910;2023-05-03T12:21:59;13.70;99.90
22629;DHT22;11481;53.694;9.910;2023-05-03T12:24:29;13.40;99.90
22629;DHT22;11481;53.694;9.910;2023-05-03T12:26:59;13.60;99.90
22629;DHT22;11481;53.694;9.910;2023-05-03T12:29:28;13.80;99.90
22629;DHT22;11481;53.694;9.910;2023-05-03T12:32:01;13.80;99.90
22629;DHT22;11481;53.694;9.910;2023-05-03T12:34:29;14.00;99.90
22629;DHT22;11481;53.694;9.910;2023-05-03T12:37:01;14.30;99.90
22629;DHT22;11481;53.694;9.910;2023-05-03T12:39:32;14.10;99.90
22629;DHT22;11481;53.694;9.910;2023-05-03T12:42:03;14.20;99.90
22629;DHT22;11481;53.694;9.910;2023-05-03T12:44:33;14.40;99.90
22629;DHT22;11481;53.694;9.910;2023-05-03T12:47:06;13.80;99.90
22629;DHT22;11481;53.694;9.910;2023-05-03T12:49:35;13.60;99.90
22629;DHT22;11481;53.694;9.910;2023-05-03T12:52:05;13.70;99.90
22629;DHT22;11481;53.694;9.910;2023-05-03T12:54:51;13.90;99.90
22629;DHT22;11481;53.694;9.910;2023-05-03T12:57:21;14.20;99.90
22629;DHT22;11481;53.694;9.910;2023-05-03T12:59:50;14.50;99.90
22629;DHT22;11481;53.694;9.910;2023-05-03T13:02:29;15.10;99.90
22629;DHT22;11481;53.694;9.910;2023-05-03T13:04:59;15.50;99.90
22629;DHT22;11481;53.694;9.910;2023-05-03T13:07:33;15.70;99.90
22629;DHT22;11481;53.694;9.910;2023-05-03T13:10:09;15.80;99.90
22629;DHT22;11481;53.694;9.910;2023-05-03T13:12:44;15.10;99.90
22629;DHT22;11481;53.694;9.910;2023-05-03T13:15:11;14.80;99.90
22629;DHT22;11481;53.694;9.910;2023-05-03T13:17:39;14.70;99.90
22629;DHT22;11481;53.694;9.910;2023-05-03T13:20:06;14.70;99.90
22629;DHT22;11481;53.694;9.910;2023-05-03T13:22:33;14.50;99.90
22629;DHT22;11481;53.694;9.910;2023-05-03T13:25:00;13.80;99.90
22629;DHT22;11481;53.694;9.910;2023-05-03T13:27:30;13.70;99.90
22629;DHT22;11481;53.694;9.910;2023-05-03T13:29:56;14.10;99.90
22629;DHT22;11481;53.694;9.910;2023-05-03T13:32:25;14.50;99.90
22629;DHT22;11481;53.694;9.910;2023-05-03T13:34:51;14.10;99.90
22629;DHT22;11481;53.694;9.910;2023-05-03T13:37:18;13.50;99.90
22629;DHT22;11481;53.694;9.910;2023-05-03T13:39:47;13.20;99.90
22629;DHT22;11481;53.694;9.910;2023-05-03T13:42:15;13.50;99.90
22629;DHT22;11481;53.694;9.910;2023-05-03T13:44:44;13.70;99.90
22629;DHT22;11481;53.694;9.910;2023-05-03T13:47:13;13.80;99.90
22629;DHT22;11481;53.694;9.910;2023-05-03T13:49:39;14.10;99.90
22629;DHT22;11481;53.694;9.910;2023-05-03T13:52:06;14.60;99.90
22629;DHT22;11481;53.694;9.910;2023-05-03T13:54:35;14.80;99.90
22629;DHT22;11481;53.694;9.910;2023-05-03T13:57:02;14.60;99.90
22629;DHT22;11481;53.694;9.910;2023-05-03T13:59:29;14.20;99.90
22629;DHT22;11481;53.694;9.910;2023-05-03T14:01:57;13.90;99.90
22629;DHT22;11481;53.694;9.910;2023-05-03T14:04:24;14.00;99.90
22629;DHT22;11481;53.694;9.910;2023-05-03T14:06:51;14.00;99.90
22629;DHT22;11481;53.694;9.910;2023-05-03T14:09:18;13.80;99.90
22629;DHT22;11481;53.694;9.910;2023-05-03T14:11:45;13.90;99.90
22629;DHT22;11481;53.694;9.910;2023-05-03T14:14:12;14.00;99.90
22629;DHT22;11481;53.694;9.910;2023-05-03T14:16:38;14.20;99.90
22629;DHT22;11481;53.694;9.910;2023-05-03T14:19:07;14.20;99.90
22629;DHT22;11481;53.694;9.910;2023-05-03T14:21:37;14.40;99.90
22629;DHT22;11481;53.694;9.910;2023-05-03T14:24:04;14.60;99.90
22629;DHT22;11481;53.694;9.910;2023-05-03T14:26:31;14.50;99.90
22629;DHT22;11481;53.694;9.910;2023-05-03T14:28:59;14.40;99.90
22629;DHT22;11481;53.694;9.910;2023-05-03T14:31:26;14.30;99.90
22629;DHT22;11481;53.694;9.910;2023-05-03T14:33:53;14.00;99.90
22629;DHT22;11481;53.694;9.910;2023-05-03T14:36:20;14.10;99.90
22629;DHT22;11481;53.694;9.910;2023-05-03T14:38:47;13.80;99.90
22629;DHT22;11481;53.694;9.910;2023-05-03T14:41:13;13.50;99.90
22629;DHT22;11481;53.694;9.910;2023-05-03T14:43:40;13.50;99.90
22629;DHT22;11481;53.694;9.910;2023-05-03T14:46:09;13.40;99.90
22629;DHT22;11481;53.694;9.910;2023-05-03T14:48:36;13.50;99.90
22629;DHT22;11481;53.694;9.910;2023-05-03T14:51:04;13.80;99.90
22629;DHT22;11481;53.694;9.910;2023-05-03T14:53:31;13.90;99.90
22629;DHT22;11481;53.694;9.910;2023-05-03T14:55:58;14.20;99.90
22629;DHT22;11481;53.694;9.910;2023-05-03T14:58:25;14.50;99.90
22629;DHT22;11481;53.694;9.910;2023-05-03T15:00:55;14.50;99.90
22629;DHT22;11481;53.694;9.910;2023-05-03T15:03:21;14.90;99.90
22629;DHT22;11481;53.694;9.910;2023-05-03T15:05:49;14.60;99.90
22629;DHT22;11481;53.694;9.910;2023-05-03T15:08:17;14.50;99.90
22629;DHT22;11481;53.694;9.910;2023-05-03T15:10:45;14.10;99.90
22629;DHT22;11481;53.694;9.910;2023-05-03T15:13:13;14.20;99.90
22629;DHT22;11481;53.694;9.910;2023-05-03T15:15:42;14.20;99.90
22629;DHT22;11481;53.694;9.910;2023-05-03T15:18:09;14.20;99.90
22629;DHT22;11481;53.694;9.910;2023-05-03T15:20:37;14.20;99.90
22629;DHT22;11481;53.694;9.910;2023-05-03T15:23:05;14.60;99.90
22629;DHT22;11481;53.694;9.910;2023-05-03T15:25:33;14.30;99.90
22629;DHT22;11481;53.694;9.910;2023-05-03T15:28:00;14.40;99.90
22629;DHT22;11481;53.694;9.910;2023-05-03T15:30:31;14.50;99.90
22629;DHT22;11481;53.694;9.910;2023-05-03T15:32:58;14.20;99.90
22629;DHT22;11481;53.694;9.910;2023-05-03T15:35:26;14.30;99.90
22629;DHT22;11481;53.694;9.910;2023-05-03T15:37:54;14.20;99.90
22629;DHT22;11481;53.694;9.910;2023-05-03T15:40:21;14.50;99.90
22629;DHT22;11481;53.694;9.910;2023-05-03T15:42:52;14.70;99.90
22629;DHT22;11481;53.694;9.910;2023-05-03T15:45:19;15.10;99.90
22629;DHT22;11481;53.694;9.910;2023-05-03T15:47:48;15.50;99.90
22629;DHT22;11481;53.694;9.910;2023-05-03T15:50:15;15.70;99.90
22629;DHT22;11481;53.694;9.910;2023-05-03T15:52:41;16.10;99.90
22629;DHT22;11481;53.694;9.910;2023-05-03T15:55:12;16.00;99.90
22629;DHT22;11481;53.694;9.910;2023-05-03T15:57:38;16.40;99.90